Date,TemperatureHighF,TemperatureAvgF,TemperatureLowF,DewpointHighF,DewpointAvgF,DewpointLowF,HumidityHigh,HumidityAvg,HumidityLow,PressureMaxIn,PressureMinIn,WindSpeedMaxMPH,WindSpeedAvgMPH,GustSpeedMaxMPH,PrecipitationSumIn
2013-2-1,7.9,-0.7,-10.8,2.6,-8.3,-16.9,79,70,56,30.07,29.80,10,1,10,0.00
2013-2-2,16.2,8.8,3.2,7.6,2.6,-1.8,81,76,62,29.94,29.73,6,1,6,0.00
2013-2-3,17.5,12.1,5.4,9.4,6.0,0.3,83,76,66,29.85,29.73,12,2,12,0.00
2013-2-4,19.3,12.5,5.4,10.7,5.3,0.5,88,73,57,29.83,29.53,8,1,8,0.00
2013-2-5,32.4,23.5,10.6,25.6,18.3,5.3,92,81,66,29.85,29.44,9,2,9,0.00
2013-2-6,26.5,16.4,3.2,20.8,12.0,-0.6,86,83,79,29.88,29.70,8,1,8,0.00
2013-2-7,27.0,25.6,20.7,23.7,22.0,16.8,91,86,81,30.01,29.74,8,1,8,0.00
2013-2-8,29.0,24.4,19.8,21.7,18.3,13.3,86,78,62,30.15,29.99,9,2,9,0.00
2013-2-9,32.0,28.6,25.6,28.8,25.5,21.4,92,88,84,30.00,29.71,13,5,13,0.00
2013-2-10,34.2,31.3,28.4,32.9,29.5,25.4,96,93,88,29.71,29.05,8,2,8,0.00
2013-2-11,31.7,25.4,18.5,30.7,21.1,13.4,96,83,76,29.81,29.11,13,5,13,0.00
2013-2-12,38.3,25.9,16.2,27.8,19.4,11.3,87,77,62,29.81,29.58,8,2,8,0.01
2013-2-13,40.7,30.0,19.8,31.1,24.2,15.4,91,79,63,29.58,29.34,6,1,6,0.18
2013-2-14,34.2,27.7,16.4,31.3,20.9,6.6,93,76,50,29.94,29.34,9,2,9,0.03
2013-2-15,22.9,13.4,5.9,9.4,4.1,-0.4,79,67,52,30.06,29.94,10,2,10,0.00
2013-2-16,22.0,10.6,2.7,13.9,3.3,-3.0,80,72,60,30.02,29.88,5,1,5,0.00
2013-2-17,31.9,21.4,7.2,24.2,14.8,0.9,83,75,69,29.88,29.41,16,5,16,0.00
2013-2-18,33.8,24.1,7.7,30.6,18.7,3.0,88,80,74,29.57,29.30,11,1,11,0.00
2013-2-19,11.7,6.2,0.0,3.0,-2.1,-8.0,81,69,58,30.12,29.57,0,0,0,0.00
2013-2-20,21.6,4.6,-5.0,9.5,-3.5,-11.1,78,69,55,30.21,30.11,3,0,3,0.00
2013-2-21,26.1,17.8,6.1,14.7,9.0,-1.1,76,68,61,30.19,29.83,1,0,1,0.00
2013-2-22,32.4,24.5,20.3,25.4,19.2,13.1,86,80,72,29.83,29.63,0,0,0,0.09
2013-2-23,34.2,22.6,15.5,25.4,17.5,10.7,87,81,67,29.74,29.62,0,0,0,0.01
2013-2-24,35.8,21.8,8.3,26.0,15.0,4.0,84,75,61,29.87,29.73,0,0,0,0.03
2013-2-25,38.5,29.0,20.3,28.5,23.0,15.8,88,79,64,29.89,29.80,0,0,0,0.00
2013-2-26,44.1,30.0,19.1,33.8,24.2,14.4,88,79,66,29.83,29.64,0,0,0,0.00
2013-2-27,38.7,32.2,28.3,28.3,25.4,22.6,83,76,64,29.80,29.63,0,0,0,0.00
2013-2-28,30.4,28.7,24.7,23.3,21.7,17.6,79,75,72,29.99,29.80,0,0,0,0.00